Time;durP1;ratioP1;P1;durP2;ratioP2;P2;SDS_P1;SDS_P2;PMS_P1;PMS_P2;Temp;Humidity;BMP_temperature;BMP_pressure;BME280_temperature;BME280_humidity;BME280_pressure;Samples;Min_cycle;Max_cycle;Signal;HPM_P1;HPM_P2
2021/12/03 00:02:02;;;;;;;11.98;7.63;;;-0.60;99.90;;;;;;4393681;28;10000505;-73
2021/12/03 00:04:28;;;;;;;12.50;7.25;;;-0.60;99.90;;;;;;5102887;28;20035;-72
2021/12/03 00:06:55;;;;;;;11.75;7.20;;;-0.60;99.90;;;;;;5097669;28;20023;-76
2021/12/03 00:09:21;;;;;;;11.57;7.15;;;-0.70;99.90;;;;;;5103670;28;20834;-76
2021/12/03 00:11:46;;;;;;;11.98;7.07;;;-0.70;99.90;;;;;;5100919;28;20019;-73
2021/12/03 00:14:12;;;;;;;10.77;6.75;;;-0.70;99.90;;;;;;5089329;28;20077;-75
2021/12/03 00:16:37;;;;;;;13.25;7.28;;;-0.70;99.90;;;;;;5102986;28;20448;-76
2021/12/03 00:19:03;;;;;;;13.65;7.90;;;-0.70;99.90;;;;;;5108494;28;20019;-76
2021/12/03 00:21:29;;;;;;;12.63;7.95;;;-0.70;99.90;;;;;;5103072;28;20035;-76
2021/12/03 00:23:55;;;;;;;12.50;7.80;;;-0.80;99.90;;;;;;5105703;28;20104;-76
2021/12/03 00:26:21;;;;;;;13.43;7.68;;;-0.80;99.90;;;;;;5110454;28;20027;-75
2021/12/03 00:28:47;;;;;;;18.15;9.70;;;-0.80;99.90;;;;;;5103629;28;20166;-72
2021/12/03 00:31:13;;;;;;;13.80;8.98;;;-0.80;99.90;;;;;;5096712;28;20178;-76
2021/12/03 00:33:39;;;;;;;15.60;8.82;;;-0.80;99.90;;;;;;5079812;28;20129;-75
2021/12/03 00:36:09;;;;;;;14.43;8.90;;;-0.80;99.90;;;;;;5069941;28;20367;-76
2021/12/03 00:38:42;;;;;;;17.25;9.90;;;-0.90;99.90;;;;;;5076851;28;20148;-76
2021/12/03 00:41:10;;;;;;;;;;;-0.90;99.90;;;;;;5083475;28;20028;-73
2021/12/03 00:43:45;;;;;;;18.13;10.18;;;-0.90;99.90;;;;;;5087346;28;19915;-77
2021/12/03 00:46:14;;;;;;;15.20;9.50;;;-0.90;99.90;;;;;;5077761;28;20585;-75
2021/12/03 00:48:40;;;;;;;19.17;10.70;;;-1.00;99.90;;;;;;5084585;28;20031;-75
2021/12/03 00:51:08;;;;;;;18.30;10.07;;;-1.00;99.90;;;;;;5086773;28;20033;-76
2021/12/03 00:53:34;;;;;;;17.85;9.80;;;-1.00;99.90;;;;;;5088943;28;20047;-76
2021/12/03 00:56:00;;;;;;;19.98;10.90;;;-1.00;99.90;;;;;;5083711;28;20661;-75
2021/12/03 00:58:26;;;;;;;17.05;9.57;;;-1.00;99.90;;;;;;5088292;28;20445;-76
2021/12/03 01:00:52;;;;;;;18.23;9.00;;;-1.00;99.90;;;;;;5088795;28;20108;-76
2021/12/03 01:03:17;;;;;;;16.50;9.80;;;-1.00;99.90;;;;;;5082083;28;20477;-72
2021/12/03 01:05:44;;;;;;;14.43;8.55;;;-1.00;99.90;;;;;;5080871;28;20043;-72
2021/12/03 01:08:09;;;;;;;14.45;8.63;;;-1.00;99.90;;;;;;5087458;28;20225;-72
2021/12/03 01:10:35;;;;;;;18.45;9.60;;;-1.10;99.90;;;;;;5088510;28;20073;-73
2021/12/03 01:13:01;;;;;;;16.15;9.13;;;-1.00;99.90;;;;;;5087006;28;20028;-76
2021/12/03 01:15:33;;;;;;;14.40;8.60;;;-1.10;99.90;;;;;;5078983;28;20472;-76
2021/12/03 01:18:00;;;;;;;9.97;6.40;;;-1.10;99.90;;;;;;5082883;28;20506;-76
2021/12/03 01:20:26;;;;;;;15.45;8.10;;;-1.20;99.90;;;;;;5082362;28;20274;-76
2021/12/03 01:22:53;;;;;;;13.40;7.53;;;-1.10;99.90;;;;;;5080268;28;20361;-75
2021/12/03 01:25:20;;;;;;;11.60;6.80;;;-1.20;99.90;;;;;;5073194;28;20101;-76
2021/12/03 01:27:47;;;;;;;11.57;6.70;;;-1.20;99.90;;;;;;5072309;28;20402;-75
2021/12/03 01:30:16;;;;;;;11.88;7.00;;;-1.20;99.90;;;;;;5088510;28;20078;-76
2021/12/03 01:32:42;;;;;;;11.00;6.70;;;-1.20;99.90;;;;;;5085802;28;20047;-73
2021/12/03 01:35:09;;;;;;;12.38;6.75;;;-1.20;99.90;;;;;;5104378;28;20413;-75
2021/12/03 01:37:35;;;;;;;9.80;6.22;;;-1.20;99.90;;;;;;5106654;28;20024;-76
2021/12/03 01:40:01;;;;;;;12.35;6.90;;;-1.30;99.90;;;;;;5106322;28;20026;-76
2021/12/03 01:42:27;;;;;;;11.07;7.00;;;-1.30;99.90;;;;;;5103213;28;20020;-76
2021/12/03 01:44:53;;;;;;;13.98;7.40;;;-1.30;99.90;;;;;;5103756;28;20089;-76
2021/12/03 01:47:18;;;;;;;13.85;7.60;;;-1.30;99.90;;;;;;5090725;28;20480;-76
2021/12/03 01:49:44;;;;;;;12.43;7.82;;;-1.30;99.90;;;;;;5098074;28;20077;-76
2021/12/03 01:52:10;;;;;;;12.98;7.07;;;-1.30;99.90;;;;;;5096583;28;20326;-76
2021/12/03 01:54:36;;;;;;;13.98;7.50;;;-1.30;99.90;;;;;;5104666;28;20028;-75
2021/12/03 01:57:01;;;;;;;12.05;7.32;;;-1.30;99.90;;;;;;5094653;28;20024;-76
2021/12/03 01:59:27;;;;;;;14.02;8.25;;;-1.30;99.90;;;;;;5099682;28;20031;-76
2021/12/03 02:01:53;;;;;;;13.77;7.72;;;-1.30;99.90;;;;;;5102375;28;20075;-76
2021/12/03 02:04:19;;;;;;;13.90;8.48;;;-1.30;99.90;;;;;;5100633;28;20076;-76
2021/12/03 02:06:44;;;;;;;14.77;8.30;;;-1.30;99.90;;;;;;5100352;28;20031;-75
2021/12/03 02:09:10;;;;;;;15.13;8.65;;;-1.30;99.90;;;;;;5100520;28;20024;-76
2021/12/03 02:11:36;;;;;;;16.10;8.50;;;-1.30;99.90;;;;;;5101907;28;20413;-76
2021/12/03 02:14:02;;;;;;;15.38;8.98;;;-1.30;99.90;;;;;;5104968;28;20034;-76
2021/12/03 02:16:28;;;;;;;17.38;9.48;;;-1.30;99.90;;;;;;5093496;28;20528;-76
2021/12/03 02:18:54;;;;;;;18.52;9.70;;;-1.30;99.90;;;;;;5098121;28;20051;-75
2021/12/03 02:21:20;;;;;;;16.38;9.85;;;-1.30;99.90;;;;;;5101558;28;20021;-76
2021/12/03 02:23:47;;;;;;;16.58;10.18;;;-1.30;99.90;;;;;;5097902;28;20020;-75
2021/12/03 02:26:13;;;;;;;20.27;11.25;;;-1.30;99.90;;;;;;5090362;28;20489;-75
2021/12/03 02:28:43;;;;;;;18.77;10.70;;;-1.30;99.90;;;;;;5097925;27;20028;-76
2021/12/03 02:31:10;;;;;;;16.15;9.25;;;-1.30;99.90;;;;;;5100606;28;20028;-75
2021/12/03 02:33:36;;;;;;;15.30;8.77;;;-1.40;99.90;;;;;;5099117;28;20044;-76
2021/12/03 02:36:03;;;;;;;16.75;9.73;;;-1.40;99.90;;;;;;5095195;28;20017;-75
2021/12/03 02:38:29;;;;;;;15.38;8.93;;;-1.50;99.90;;;;;;5095571;27;20657;-74
2021/12/03 02:40:55;;;;;;;15.77;8.63;;;-1.50;99.90;;;;;;5097992;28;20028;-73
2021/12/03 02:43:21;;;;;;;13.35;8.20;;;-1.50;99.90;;;;;;5102028;28;20092;-74
2021/12/03 02:45:47;;;;;;;13.93;7.95;;;-1.60;99.90;;;;;;5094688;28;20046;-73
2021/12/03 02:48:13;;;;;;;14.60;7.72;;;-1.60;99.90;;;;;;5091151;27;20668;-73
2021/12/03 02:50:38;;;;;;;13.38;7.82;;;-1.60;99.90;;;;;;5091180;28;20027;-73
2021/12/03 02:53:05;;;;;;;18.38;9.05;;;-1.60;99.90;;;;;;5101442;28;20030;-73
2021/12/03 02:55:30;;;;;;;17.27;9.65;;;-1.50;99.90;;;;;;5101787;27;20698;-73
2021/12/03 02:57:56;;;;;;;14.52;8.25;;;-1.50;99.90;;;;;;5099898;28;20505;-73
2021/12/03 03:00:25;;;;;;;16.42;8.77;;;-1.50;99.90;;;;;;5089377;28;20088;-73
2021/12/03 03:02:51;;;;;;;18.50;8.23;;;-1.50;99.90;;;;;;5099102;27;20023;-73
2021/12/03 03:05:18;;;;;;;16.98;9.27;;;-1.50;99.90;;;;;;5095615;27;20019;-73
2021/12/03 03:07:45;;;;;;;14.57;8.07;;;-1.60;99.90;;;;;;5101875;28;20110;-73
2021/12/03 03:10:15;;;;;;;19.77;9.25;;;-1.60;99.90;;;;;;5101964;28;20023;-74
2021/12/03 03:12:42;;;;;;;15.25;8.05;;;-1.50;99.90;;;;;;5105423;27;20035;-73
2021/12/03 03:15:10;;;;;;;15.93;9.00;;;-1.60;99.90;;;;;;5101338;28;20024;-74
2021/12/03 03:17:36;;;;;;;17.40;9.18;;;-1.60;99.90;;;;;;5098563;28;20127;-74
2021/12/03 03:20:04;;;;;;;15.75;9.88;;;-1.60;99.90;;;;;;5102124;28;20429;-73
2021/12/03 03:22:30;;;;;;;15.98;8.88;;;-1.60;99.90;;;;;;5101372;28;20493;-74
2021/12/03 03:24:59;;;;;;;15.55;8.35;;;-1.70;99.90;;;;;;5101515;28;20554;-73
2021/12/03 03:27:28;;;;;;;15.93;8.65;;;-1.80;99.90;;;;;;5094408;28;20050;-73
2021/12/03 03:29:54;;;;;;;16.92;8.73;;;-1.80;99.90;;;;;;5086798;28;20449;-74
2021/12/03 03:32:20;;;;;;;16.15;9.07;;;-1.90;99.90;;;;;;5091346;28;20043;-74
2021/12/03 03:34:46;;;;;;;16.65;9.32;;;-1.90;99.90;;;;;;5102287;28;20028;-76
2021/12/03 03:37:11;;;;;;;17.85;9.40;;;-1.90;99.90;;;;;;5098691;28;20070;-73
2021/12/03 03:39:37;;;;;;;15.50;8.90;;;-1.90;99.90;;;;;;5086933;28;20043;-73
2021/12/03 03:42:04;;;;;;;16.95;9.10;;;-1.90;99.90;;;;;;5096297;28;20107;-73
2021/12/03 03:44:30;;;;;;;16.73;8.32;;;-1.90;99.90;;;;;;5103590;28;20024;-74
2021/12/03 03:46:57;;;;;;;17.98;8.70;;;-1.90;99.90;;;;;;5106360;28;20032;-73
2021/12/03 03:49:24;;;;;;;18.15;8.05;;;-2.00;99.90;;;;;;5107011;28;20259;-74
2021/12/03 03:51:51;;;;;;;12.63;6.97;;;-2.00;99.90;;;;;;5096953;28;20080;-73
2021/12/03 03:54:17;;;;;;;17.33;7.90;;;-1.90;99.90;;;;;;5092815;27;20038;-74
2021/12/03 03:56:44;;;;;;;15.30;8.35;;;-1.90;99.90;;;;;;5099600;28;20020;-74
2021/12/03 03:59:09;;;;;;;12.20;7.40;;;-1.90;99.90;;;;;;5106420;28;20084;-74
2021/12/03 04:01:36;;;;;;;15.52;7.18;;;-1.90;99.90;;;;;;5102340;27;20032;-73
2021/12/03 04:04:02;;;;;;;15.25;7.90;;;-1.90;99.90;;;;;;5107345;27;20055;-74
2021/12/03 04:06:28;;;;;;;13.85;7.47;;;-1.80;99.90;;;;;;5097146;27;20057;-74
2021/12/03 04:08:53;;;;;;;13.27;7.03;;;-1.80;99.90;;;;;;5106677;28;20441;-74
2021/12/03 04:11:22;;;;;;;12.48;7.38;;;-1.80;99.90;;;;;;5103774;28;20039;-74
2021/12/03 04:13:48;;;;;;;14.15;7.10;;;-1.90;99.90;;;;;;5096045;27;20397;-73
2021/12/03 04:16:15;;;;;;;15.85;7.40;;;-1.90;99.90;;;;;;5104839;28;20035;-74
2021/12/03 04:18:40;;;;;;;13.73;7.30;;;-1.90;99.90;;;;;;5106613;27;20027;-75
2021/12/03 04:21:06;;;;;;;12.38;6.97;;;-1.90;99.90;;;;;;5102032;27;20447;-76
2021/12/03 04:23:32;;;;;;;15.95;7.85;;;-1.90;99.90;;;;;;5101876;27;20016;-76
2021/12/03 04:25:58;;;;;;;12.82;7.47;;;-2.00;99.90;;;;;;5109703;27;20077;-74
2021/12/03 04:28:23;;;;;;;12.52;7.30;;;-2.00;99.90;;;;;;5102829;27;20027;-73
2021/12/03 04:30:50;;;;;;;12.90;7.28;;;-2.00;99.90;;;;;;5107381;28;20527;-74
2021/12/03 04:33:17;;;;;;;11.57;6.68;;;-2.00;99.90;;;;;;5103567;28;20044;-74
2021/12/03 04:35:42;;;;;;;14.13;7.53;;;-1.90;99.90;;;;;;5105792;28;20088;-74
2021/12/03 04:38:09;;;;;;;13.68;6.90;;;-1.80;99.90;;;;;;5097185;27;20020;-74
2021/12/03 04:40:37;;;;;;;12.25;6.85;;;-1.80;99.90;;;;;;5103118;28;20413;-74
2021/12/03 04:43:04;;;;;;;14.68;7.60;;;-1.70;99.90;;;;;;5106163;27;20027;-74
2021/12/03 04:45:30;;;;;;;15.30;8.00;;;-1.70;99.90;;;;;;5100244;28;20032;-74
2021/12/03 04:47:58;;;;;;;14.40;8.30;;;-1.80;99.90;;;;;;5099745;27;20546;-73
2021/12/03 04:50:27;;;;;;;15.00;8.23;;;-1.70;99.90;;;;;;5105967;27;20455;-74
2021/12/03 04:52:53;;;;;;;14.77;8.25;;;-1.70;99.90;;;;;;5101502;27;20038;-74
2021/12/03 04:55:20;;;;;;;15.85;9.25;;;-1.80;99.90;;;;;;5105407;28;20031;-76
2021/12/03 04:57:46;;;;;;;15.52;8.68;;;-1.80;99.90;;;;;;5100069;27;20148;-76
2021/12/03 05:00:17;;;;;;;16.88;9.43;;;-1.80;99.90;;;;;;5097378;27;20076;-76
2021/12/03 05:02:44;;;;;;;16.77;8.93;;;-1.80;99.90;;;;;;5099817;28;20473;-74
2021/12/03 05:05:10;;;;;;;15.23;8.70;;;-1.80;99.90;;;;;;5105197;27;20051;-74
2021/12/03 05:10:05;;;;;;;15.82;8.93;;;-1.80;99.90;;;;;;5109737;28;20067;-74
2021/12/03 05:12:31;;;;;;;18.55;9.02;;;-1.90;99.90;;;;;;5109512;28;20120;-76
2021/12/03 05:14:57;;;;;;;20.08;9.30;;;-1.90;99.90;;;;;;5105518;27;20528;-76
2021/12/03 05:17:23;;;;;;;18.33;9.32;;;-2.00;99.90;;;;;;5107271;28;20035;-76
2021/12/03 05:19:49;;;;;;;17.08;8.77;;;-2.00;99.90;;;;;;5098802;27;20056;-76
2021/12/03 05:22:15;;;;;;;15.70;8.30;;;-2.10;99.90;;;;;;5089582;28;20035;-76
2021/12/03 05:24:45;;;;;;;19.23;8.32;;;-2.20;99.90;;;;;;5099598;27;20028;-75
2021/12/03 05:27:16;;;;;;;20.70;9.40;;;-2.20;99.90;;;;;;5107842;28;20035;-75
2021/12/03 05:29:42;;;;;;;21.83;10.23;;;-2.20;99.90;;;;;;5104991;28;20465;-76
2021/12/03 05:32:08;;;;;;;22.63;11.07;;;-2.10;99.90;;;;;;5106480;28;20054;-75
2021/12/03 05:34:35;;;;;;;22.27;11.00;;;-2.10;99.90;;;;;;5105214;27;20023;-73
2021/12/03 05:37:00;;;;;;;21.77;10.98;;;-2.10;99.90;;;;;;5107793;28;20461;-76
2021/12/03 05:39:26;;;;;;;23.60;10.52;;;-2.00;99.90;;;;;;5102944;28;20099;-75
2021/12/03 05:41:51;;;;;;;31.48;14.13;;;-2.00;99.90;;;;;;5107837;27;20020;-73
2021/12/03 05:44:17;;;;;;;24.30;12.52;;;-2.00;99.90;;;;;;5105617;28;20388;-73
2021/12/03 05:46:43;;;;;;;24.15;11.60;;;-1.90;99.90;;;;;;5097739;27;20020;-73
2021/12/03 05:49:08;;;;;;;22.42;11.65;;;-1.80;99.90;;;;;;5098459;28;20051;-73
2021/12/03 05:51:34;;;;;;;19.75;11.10;;;-1.70;99.90;;;;;;5102611;27;20115;-74
2021/12/03 05:54:00;;;;;;;22.23;11.15;;;-1.60;99.90;;;;;;5101952;27;20446;-74
2021/12/03 05:56:25;;;;;;;20.27;11.40;;;-1.50;99.90;;;;;;5103887;27;20019;-74
2021/12/03 05:58:51;;;;;;;19.73;10.55;;;-1.40;99.90;;;;;;5106554;27;20058;-74
2021/12/03 06:01:18;;;;;;;23.55;11.40;;;-1.40;99.90;;;;;;5107043;28;21877;-74
2021/12/03 06:03:46;;;;;;;20.88;11.38;;;-1.30;99.90;;;;;;5092844;27;20628;-74
2021/12/03 06:06:12;;;;;;;20.73;11.40;;;-1.20;99.90;;;;;;5107074;28;20047;-74
2021/12/03 06:08:38;;;;;;;21.02;11.43;;;-1.10;99.90;;;;;;5101714;28;20051;-74
2021/12/03 06:11:03;;;;;;;24.35;12.38;;;-1.00;99.90;;;;;;5103050;27;20197;-72
2021/12/03 06:13:29;;;;;;;22.60;11.98;;;-1.00;99.90;;;;;;5095630;28;20073;-73
2021/12/03 06:15:55;;;;;;;22.75;12.07;;;-0.90;99.90;;;;;;5099931;28;20434;-73
2021/12/03 06:18:20;;;;;;;21.80;12.70;;;-1.00;99.90;;;;;;5100369;27;20493;-73
2021/12/03 06:20:46;;;;;;;23.25;13.13;;;-1.00;99.90;;;;;;5101832;27;20358;-73
2021/12/03 06:23:12;;;;;;;23.27;13.90;;;-1.00;99.90;;;;;;5101368;28;20030;-73
2021/12/03 06:25:38;;;;;;;26.85;14.70;;;-1.00;99.90;;;;;;5094662;28;20043;-73
2021/12/03 06:28:04;;;;;;;27.20;14.68;;;-1.00;99.90;;;;;;5093878;27;20519;-73
2021/12/03 06:30:29;;;;;;;28.33;14.18;;;-1.00;99.90;;;;;;5102167;27;20129;-73
2021/12/03 06:32:56;;;;;;;31.55;15.77;;;-1.00;99.90;;;;;;5078275;28;20079;-75
2021/12/03 06:35:22;;;;;;;26.98;14.93;;;-0.90;99.90;;;;;;5079194;28;20428;-76
2021/12/03 06:37:49;;;;;;;26.00;14.07;;;-0.90;99.90;;;;;;5085922;28;20031;-75
2021/12/03 06:40:22;;;;;;;32.10;15.23;;;-0.90;99.90;;;;;;5075459;28;20401;-73
2021/12/03 06:42:48;;;;;;;;;;;-0.90;99.90;;;;;;5081163;28;20024;-73
2021/12/03 06:45:14;;;;;;;33.65;16.45;;;-0.90;99.90;;;;;;5067477;28;19935;-73
2021/12/03 06:47:40;;;;;;;37.60;18.38;;;-0.90;99.90;;;;;;5081533;28;20031;-73
2021/12/03 06:50:09;;;;;;;32.25;18.05;;;-0.80;99.90;;;;;;5083347;28;20028;-73
2021/12/03 06:52:37;;;;;;;32.53;17.75;;;-0.80;99.90;;;;;;5074028;28;20040;-72
2021/12/03 06:55:04;;;;;;;33.90;18.60;;;-0.80;99.90;;;;;;5067061;28;20036;-74
2021/12/03 06:57:30;;;;;;;35.03;17.92;;;-0.80;99.90;;;;;;5071749;28;20482;-74
2021/12/03 06:59:56;;;;;;;37.53;20.10;;;-0.80;99.90;;;;;;5071443;28;20036;-74
2021/12/03 07:02:22;;;;;;;38.72;19.27;;;-0.70;99.90;;;;;;5066298;28;20028;-74
2021/12/03 07:04:48;;;;;;;37.78;20.17;;;-0.70;99.90;;;;;;5078950;28;20027;-73
2021/12/03 07:07:14;;;;;;;31.42;17.40;;;-0.70;99.90;;;;;;5086923;28;20031;-73
2021/12/03 07:09:41;;;;;;;37.70;19.90;;;-0.60;99.90;;;;;;5081464;28;20077;-74
2021/12/03 07:12:08;;;;;;;34.95;18.52;;;-0.60;99.90;;;;;;5092455;28;20676;-76
2021/12/03 07:14:34;;;;;;;32.72;17.85;;;-0.60;99.90;;;;;;5084093;28;20582;-76
2021/12/03 07:17:00;;;;;;;36.20;19.48;;;-0.60;99.90;;;;;;5081548;28;20064;-77
2021/12/03 07:19:26;;;;;;;35.28;19.38;;;-0.60;99.90;;;;;;5079946;28;20106;-77
2021/12/03 07:21:51;;;;;;;39.15;19.85;;;-0.60;99.90;;;;;;5079089;28;20114;-76
2021/12/03 07:24:17;;;;;;;41.97;20.05;;;-0.60;99.90;;;;;;5078667;28;20397;-76
2021/12/03 07:26:43;;;;;;;39.60;20.25;;;-0.60;99.90;;;;;;5089384;28;20084;-76
2021/12/03 07:29:08;;;;;;;42.30;21.63;;;-0.60;99.90;;;;;;5080822;28;20821;-76
2021/12/03 07:31:35;;;;;;;46.17;22.60;;;-0.60;99.90;;;;;;5088188;28;20055;-76
2021/12/03 07:34:01;;;;;;;45.20;21.05;;;-0.60;99.90;;;;;;5090214;28;20067;-77
2021/12/03 07:36:26;;;;;;;42.47;21.35;;;-0.60;99.90;;;;;;5096598;28;20055;-76
2021/12/03 07:38:52;;;;;;;38.58;20.73;;;-0.60;99.90;;;;;;5100581;28;20019;-75
2021/12/03 07:41:18;;;;;;;39.00;20.40;;;-0.50;99.90;;;;;;5106521;28;20073;-76
2021/12/03 07:43:43;;;;;;;42.78;22.08;;;-0.50;99.90;;;;;;5099559;28;20035;-76
2021/12/03 07:46:09;;;;;;;56.58;33.42;;;-0.50;99.90;;;;;;5089442;28;20020;-76
2021/12/03 07:48:36;;;;;;;52.78;30.95;;;-0.50;99.90;;;;;;5104577;28;20039;-76
2021/12/03 07:51:01;;;;;;;46.78;25.02;;;-0.40;99.90;;;;;;5106257;28;20044;-76
2021/12/03 07:53:27;;;;;;;43.20;22.55;;;-0.50;99.90;;;;;;5101119;28;20504;-76
2021/12/03 07:55:54;;;;;;;45.03;22.77;;;-0.40;99.90;;;;;;5105298;28;20477;-76
2021/12/03 07:58:20;;;;;;;40.38;22.20;;;-0.40;99.90;;;;;;5101588;28;20584;-76
2021/12/03 08:00:47;;;;;;;37.22;20.98;;;-0.40;99.90;;;;;;5100874;28;20507;-76
2021/12/03 08:03:13;;;;;;;40.97;21.35;;;-0.40;99.90;;;;;;5096870;28;20047;-76
2021/12/03 08:05:39;;;;;;;40.13;21.40;;;-0.40;99.90;;;;;;5102104;28;20621;-77
2021/12/03 08:08:05;;;;;;;46.08;24.70;;;-0.40;99.90;;;;;;5101935;28;20046;-76
2021/12/03 08:10:34;;;;;;;45.45;23.45;;;-0.40;99.90;;;;;;5099303;28;20080;-76
2021/12/03 08:13:01;;;;;;;37.90;20.55;;;-0.30;99.90;;;;;;5099103;28;20027;-76
2021/12/03 08:15:27;;;;;;;39.00;21.52;;;-0.20;99.90;;;;;;5104743;28;20358;-76
2021/12/03 08:17:52;;;;;;;39.78;21.08;;;-0.20;99.90;;;;;;5094463;28;20074;-79
2021/12/03 08:20:18;;;;;;;40.58;21.50;;;-0.10;99.90;;;;;;5098056;28;20020;-79
2021/12/03 08:22:44;;;;;;;39.05;20.48;;;0.00;99.90;;;;;;5099667;28;20032;-79
2021/12/03 08:25:11;;;;;;;43.28;21.88;;;0.00;99.90;;;;;;5100317;28;20077;-80
2021/12/03 08:27:37;;;;;;;37.92;21.58;;;0.10;99.90;;;;;;5087505;28;20035;-78
2021/12/03 08:30:05;;;;;;;40.65;21.42;;;0.10;99.90;;;;;;5088025;28;20028;-78
2021/12/03 08:32:31;;;;;;;38.25;20.73;;;0.20;99.90;;;;;;5087421;28;20113;-79
2021/12/03 08:34:57;;;;;;;36.65;20.35;;;0.20;99.90;;;;;;5087369;28;20780;-80
2021/12/03 08:37:23;;;;;;;41.80;21.02;;;0.10;99.90;;;;;;5089261;28;20036;-80
2021/12/03 08:39:48;;;;;;;46.33;23.85;;;0.10;99.90;;;;;;5090114;28;20073;-80
2021/12/03 08:42:15;;;;;;;44.45;23.45;;;0.10;99.90;;;;;;5095162;28;20032;-80
2021/12/03 08:44:40;;;;;;;49.47;25.27;;;0.10;99.90;;;;;;5095238;28;20036;-79
2021/12/03 08:47:07;;;;;;;42.28;22.58;;;0.20;99.90;;;;;;5091626;28;20024;-80
2021/12/03 08:49:49;;;;;;;42.53;21.60;;;0.20;99.90;;;;;;5103211;28;20194;-87
2021/12/03 08:52:29;;;;;;;30.13;16.65;;;0.40;99.90;;;;;;5103820;28;20059;-71
2021/12/03 08:54:55;;;;;;;37.53;20.73;;;;;;;;;;5096973;27;20410;-78
2021/12/03 08:57:31;;;;;;;44.92;23.40;;;0.50;99.90;;;;;;5109898;28;20055;-88
2021/12/03 09:00:00;;;;;;;48.78;24.70;;;0.50;99.90;;;;;;5102414;28;20493;-86
2021/12/03 09:02:26;;;;;;;47.28;22.98;;;0.50;99.90;;;;;;5102819;28;20020;-87
2021/12/03 09:04:52;;;;;;;39.75;20.05;;;0.50;99.90;;;;;;5104803;28;20020;-87
2021/12/03 09:07:18;;;;;;;35.78;20.38;;;;;;;;;;5105025;27;20452;-87
2021/12/03 09:09:44;;;;;;;41.00;19.25;;;0.60;99.90;;;;;;5101611;28;20099;-86
2021/12/03 09:12:10;;;;;;;38.63;20.83;;;0.70;99.90;;;;;;5094209;28;20024;-86
2021/12/03 09:14:41;;;;;;;39.00;20.38;;;0.80;99.90;;;;;;5100360;28;20054;-87
2021/12/03 09:19:38;;;;;;;33.95;19.25;;;0.90;99.90;;;;;;5096026;28;20027;-86
2021/12/03 09:22:04;;;;;;;37.88;20.13;;;1.00;99.90;;;;;;5101849;27;20023;-86
2021/12/03 09:24:32;;;;;;;37.70;20.30;;;0.90;99.90;;;;;;5104238;28;20080;-87
2021/12/03 09:26:58;;;;;;;37.20;19.08;;;0.90;99.90;;;;;;5096232;28;20115;-87
2021/12/03 09:29:30;;;;;;;31.80;18.77;;;0.90;99.90;;;;;;5098285;28;20491;-87
2021/12/03 09:31:58;;;;;;;23.73;13.57;;;1.00;99.90;;;;;;5101345;28;20054;-87
2021/12/03 09:34:24;;;;;;;36.70;20.05;;;1.10;99.90;;;;;;5082381;28;20102;-87
2021/12/03 09:36:51;;;;;;;33.13;19.17;;;1.10;99.90;;;;;;5086689;28;20028;-88
2021/12/03 09:39:23;;;;;;;38.55;20.38;;;1.10;99.90;;;;;;5096107;28;20039;-87
2021/12/03 09:41:50;;;;;;;38.60;21.45;;;;;;;;;;5085088;28;20397;-86
2021/12/03 09:44:16;;;;;;;34.20;17.80;;;1.20;99.90;;;;;;5083598;28;20474;-86
2021/12/03 09:46:42;;;;;;;41.80;21.90;;;1.10;99.90;;;;;;5087499;28;20688;-85
2021/12/03 09:52:04;;;;;;;32.83;19.60;;;1.30;99.90;;;;;;5077170;28;20028;-79
2021/12/03 09:57:14;;;;;;;36.00;18.58;;;1.40;99.90;;;;;;5081134;28;20024;-80
2021/12/03 10:00:09;;;;;;;30.95;17.48;;;1.50;99.90;;;;;;5090173;28;20042;-80
2021/12/03 10:13:32;;;;;;;33.90;19.77;;;1.50;99.90;;;;;;5078728;28;20112;-78
2021/12/03 10:18:58;;;;;;;38.05;19.75;;;1.40;99.90;;;;;;5085259;28;20027;-79
2021/12/03 10:25:04;;;;;;;35.35;17.98;;;1.60;99.90;;;;;;5088744;28;20024;-78
2021/12/03 10:41:22;;;;;;;30.15;16.33;;;1.90;99.90;;;;;;5099115;28;20057;-79
2021/12/03 10:52:21;;;;;;;28.45;16.35;;;2.10;99.90;;;;;;5066996;28;20109;-79
2021/12/03 10:55:10;;;;;;;28.88;15.30;;;2.00;99.90;;;;;;5088221;28;20505;-80
2021/12/03 11:00:55;;;;;;;30.08;15.93;;;1.90;99.90;;;;;;5081099;28;20035;-79
2021/12/03 11:12:28;;;;;;;26.13;15.68;;;1.70;99.90;;;;;;5079225;28;20129;-81
2021/12/03 11:36:51;;;;;;;29.38;14.40;;;1.90;99.90;;;;;;5072685;28;20027;-81
2021/12/03 11:43:18;;;;;;;25.75;14.55;;;;;;;;;;5087019;28;20066;-79
2021/12/03 13:06:33;;;;;;;21.13;11.63;;;2.20;99.90;;;;;;5100303;28;20581;-76
2021/12/03 13:45:07;;;;;;;23.10;10.20;;;2.00;99.90;;;;;;5096959;28;20040;-75
2021/12/03 14:00:04;;;;;;;19.98;11.02;;;1.90;99.90;;;;;;5099836;28;20093;-76
2021/12/03 14:51:25;;;;;;;21.17;10.07;;;1.80;99.90;;;;;;5102812;28;20042;-74
2021/12/03 14:57:32;;;;;;;21.60;10.40;;;1.80;99.90;;;;;;5096000;28;20065;-73
2021/12/03 15:08:04;;;;;;;22.88;10.25;;;1.70;99.90;;;;;;5097294;28;20036;-74
2021/12/03 15:10:57;;;;;;;20.05;10.27;;;1.70;99.90;;;;;;5103957;28;20036;-73
2021/12/03 15:13:31;;;;;;;24.55;11.07;;;1.60;99.90;;;;;;5103011;28;20049;-74
2021/12/03 15:24:33;;;;;;;19.70;10.18;;;1.60;99.90;;;;;;5101229;28;20039;-74
2021/12/03 15:27:13;;;;;;;19.73;10.52;;;1.60;99.90;;;;;;5100519;28;20032;-74
2021/12/03 15:57:00;;;;;;;17.88;11.15;;;1.60;99.90;;;;;;5104632;28;20221;-71
2021/12/03 16:04:39;;;;;;;18.10;10.00;;;1.60;99.90;;;;;;5110999;28;20717;-72
2021/12/03 16:09:54;;;;;;;17.83;10.65;;;1.50;99.90;;;;;;5104701;27;20012;-74
2021/12/03 16:17:59;;;;;;;21.05;11.80;;;;;;;;;;5097041;28;20037;-74
2021/12/03 16:47:30;;;;;;;20.05;12.18;;;1.50;99.90;;;;;;5100041;28;20645;-82
2021/12/03 16:52:32;;;;;;;23.50;12.50;;;1.60;99.90;;;;;;5103997;28;20392;-83
2021/12/03 16:54:59;;;;;;;25.13;13.75;;;1.50;99.90;;;;;;5098070;28;20038;-84
2021/12/03 16:57:32;;;;;;;33.90;14.32;;;1.50;99.90;;;;;;5101405;28;20027;-87
2021/12/03 17:00:01;;;;;;;24.95;13.45;;;1.50;99.90;;;;;;5098324;28;20656;-76
2021/12/03 17:02:37;;;;;;;30.40;14.30;;;1.40;99.90;;;;;;5095872;28;20028;-79
2021/12/03 17:13:52;;;;;;;22.90;14.02;;;1.40;99.90;;;;;;5019211;28;20510;-75
2021/12/03 17:32:22;;;;;;;21.20;13.35;;;1.40;99.90;;;;;;5092517;28;20043;-85
2021/12/03 17:47:51;;;;;;;28.20;15.13;;;1.50;99.90;;;;;;5095722;28;20036;-78
2021/12/03 17:50:40;;;;;;;23.90;13.48;;;1.40;99.90;;;;;;5104778;28;20028;-75
2021/12/03 17:58:27;;;;;;;25.10;13.68;;;1.50;99.90;;;;;;5097259;27;20036;-77
2021/12/03 18:03:34;;;;;;;24.25;13.57;;;1.50;99.90;;;;;;5102201;28;20056;-85
2021/12/03 18:44:03;;;;;;;28.58;15.10;;;;;;;;;;5097173;28;21079;-76
2021/12/03 18:54:46;;;;;;;19.40;11.75;;;1.60;99.90;;;;;;5095701;28;20514;-74
2021/12/03 18:57:21;;;;;;;21.92;11.75;;;1.70;99.90;;;;;;5087297;28;20042;-76
2021/12/03 19:00:04;;;;;;;21.30;12.55;;;1.70;99.90;;;;;;5098551;28;20657;-74
2021/12/03 19:02:30;;;;;;;19.90;11.27;;;1.60;99.90;;;;;;5096211;28;20016;-77
2021/12/03 19:05:05;;;;;;;18.20;11.88;;;;;;;;;;5099588;28;20516;-78
2021/12/03 19:08:04;;;;;;;24.67;13.68;;;;;;;;;;5095380;28;20035;-80
2021/12/03 19:10:23;;;;;;;18.50;11.80;;;1.60;99.90;;;;;;5104585;28;20035;-75
2021/12/03 19:12:59;;;;;;;17.58;11.77;;;1.60;99.90;;;;;;5095550;28;20186;-78
2021/12/03 19:15:25;;;;;;;19.73;11.43;;;1.60;99.90;;;;;;5099426;28;20023;-75
2021/12/03 19:17:52;;;;;;;18.45;10.80;;;1.60;99.90;;;;;;5096257;28;20077;-81
2021/12/03 19:20:22;;;;;;;18.17;10.88;;;1.50;99.90;;;;;;5098485;28;20065;-82
2021/12/03 19:22:51;;;;;;;18.17;11.77;;;1.60;99.90;;;;;;5091371;28;20201;-78
2021/12/03 19:25:17;;;;;;;23.75;11.25;;;1.50;99.90;;;;;;5103282;28;20020;-83
2021/12/03 19:27:43;;;;;;;18.33;11.02;;;1.50;99.90;;;;;;5101732;28;20036;-81
2021/12/03 19:30:09;;;;;;;19.48;10.00;;;1.50;99.90;;;;;;5093897;28;20043;-78
2021/12/03 19:32:35;;;;;;;15.55;10.43;;;1.50;99.90;;;;;;5095144;28;20130;-87
2021/12/03 19:35:02;;;;;;;20.48;11.48;;;1.50;99.90;;;;;;5093289;28;20108;-81
2021/12/03 19:37:29;;;;;;;18.85;10.43;;;1.50;99.90;;;;;;5105161;28;20371;-83
2021/12/03 19:40:00;;;;;;;18.27;11.13;;;1.70;99.90;;;;;;5093499;28;20103;-81
2021/12/03 19:42:32;;;;;;;22.52;10.60;;;1.70;99.90;;;;;;5091361;28;20466;-78
2021/12/03 19:45:03;;;;;;;24.90;13.33;;;1.70;99.90;;;;;;5098202;28;20122;-81
2021/12/03 19:47:35;;;;;;;18.13;12.05;;;1.50;99.90;;;;;;5094684;28;20108;-77
2021/12/03 19:50:11;;;;;;;20.52;11.27;;;1.50;99.90;;;;;;5099379;28;20412;-78
2021/12/03 19:52:46;;;;;;;21.40;10.68;;;1.50;99.90;;;;;;5089758;28;20039;-80
2021/12/03 19:55:12;;;;;;;19.30;12.40;;;1.50;99.90;;;;;;5102666;28;20033;-83
2021/12/03 19:57:37;;;;;;;19.23;11.63;;;1.70;99.90;;;;;;5099609;28;20031;-78
2021/12/03 20:00:05;;;;;;;18.60;11.80;;;1.70;99.90;;;;;;5102971;28;20111;-85
2021/12/03 20:02:31;;;;;;;20.75;11.90;;;1.70;99.90;;;;;;5099536;28;20473;-80
2021/12/03 20:04:58;;;;;;;19.85;12.20;;;1.70;99.90;;;;;;5093425;28;20026;-86
2021/12/03 20:07:24;;;;;;;26.17;13.48;;;1.70;99.90;;;;;;5093694;28;20049;-77
2021/12/03 20:09:59;;;;;;;18.75;11.63;;;1.60;99.90;;;;;;5085085;28;20024;-79